Time;durP1;ratioP1;P1;durP2;ratioP2;P2;SDS_P1;SDS_P2;PMS_P1;PMS_P2;Temp;Humidity;BMP_temperature;BMP_pressure;BME280_temperature;BME280_humidity;BME280_pressure;Samples;Min_cycle;Max_cycle;Signal;HPM_P1;HPM_P2
2022/03/16 00:01:58;;;;;;;11.63;5.53;;;;;;;10.48;97.85;96875.63;5036561;28;20201;-72
2022/03/16 00:04:26;;;;;;;12.37;5.53;;;;;;;10.56;97.96;96880.91;5035783;28;20705;-72
2022/03/16 00:06:52;;;;;;;10.33;4.90;;;;;;;10.34;97.32;96873.59;5036603;28;20640;-72
2022/03/16 00:09:19;;;;;;;16.80;6.00;;;;;;;10.47;96.94;96871.31;5036669;28;20224;-72
2022/03/16 00:11:45;;;;;;;12.03;5.00;;;;;;;10.47;96.85;96873.97;5036590;28;20838;-72
2022/03/16 00:14:11;;;;;;;17.40;6.50;;;;;;;10.48;97.18;96875.63;5035581;28;20232;-72
2022/03/16 00:16:38;;;;;;;10.33;4.97;;;;;;;10.42;97.05;96877.09;5036411;28;20212;-71
2022/03/16 00:19:04;;;;;;;14.87;6.50;;;;;;;10.59;96.35;96873.50;5052137;28;20228;-71
2022/03/16 00:21:33;;;;;;;13.90;6.53;;;;;;;10.90;95.73;96868.44;5048740;28;20216;-71
2022/03/16 00:24:00;;;;;;;14.17;6.33;;;;;;;10.74;96.25;96873.69;5048318;28;20221;-71
2022/03/16 00:26:27;;;;;;;18.93;6.47;;;;;;;10.69;95.95;96875.97;5049012;28;20205;-71
2022/03/16 00:28:53;;;;;;;17.30;6.37;;;;;;;10.57;96.42;96875.47;5048266;28;20915;-71
2022/03/16 00:31:20;;;;;;;17.03;6.33;;;;;;;10.64;96.68;96871.22;5048010;28;20227;-71
2022/03/16 00:33:47;;;;;;;12.63;6.20;;;;;;;10.64;96.19;96876.47;5048151;28;20221;-71
2022/03/16 00:36:13;;;;;;;19.27;6.63;;;;;;;10.60;97.12;96879.59;5047853;28;20201;-71
2022/03/16 00:38:41;;;;;;;14.77;6.43;;;;;;;10.80;97.71;96880.94;5048347;28;20669;-71
2022/03/16 00:41:08;;;;;;;14.27;5.43;;;;;;;10.56;98.07;96880.91;5049254;28;20205;-71
2022/03/16 00:43:35;;;;;;;18.63;6.17;;;;;;;10.59;97.86;96888.47;5048193;28;20649;-71
2022/03/16 00:46:02;;;;;;;14.87;6.60;;;;;;;10.46;98.87;96888.09;5048550;28;20678;-71
2022/03/16 00:48:28;;;;;;;14.57;5.93;;;;;;;10.38;99.83;96886.28;5048854;28;20213;-71
2022/03/16 00:50:55;;;;;;;16.00;7.07;;;;;;;10.46;99.08;96893.38;5048101;28;20213;-71
2022/03/16 00:53:21;;;;;;;15.63;6.33;;;;;;;10.50;99.09;96889.44;5048639;28;20232;-71
2022/03/16 00:55:49;;;;;;;17.93;6.30;;;;;;;10.66;99.26;96887.66;5047446;28;20213;-71
2022/03/16 00:58:16;;;;;;;18.37;6.03;;;;;;;10.47;99.16;96887.13;5046773;28;20213;-71
2022/03/16 01:00:42;;;;;;;12.97;6.17;;;;;;;10.49;98.92;96887.81;5047279;28;20209;-71
2022/03/16 01:03:08;;;;;;;19.50;6.17;;;;;;;10.53;98.53;96884.69;5046435;28;20225;-71
2022/03/16 01:05:35;;;;;;;12.33;5.33;;;;;;;10.49;99.00;96887.81;5047135;28;20225;-71
2022/03/16 01:08:01;;;;;;;12.97;6.00;;;;;;;10.44;99.29;96879.56;5047987;28;20216;-71
2022/03/16 01:10:28;;;;;;;15.83;6.57;;;;;;;10.52;98.70;96888.28;5051070;28;20658;-71
2022/03/16 01:12:56;;;;;;;17.00;6.00;;;;;;;10.56;100.00;96888.81;5047427;28;20208;-71
2022/03/16 01:15:23;;;;;;;13.27;5.60;;;;;;;10.45;99.73;96886.44;5048575;28;20225;-71
2022/03/16 01:17:50;;;;;;;18.90;6.57;;;;;;;10.49;99.12;96883.34;5051414;28;20561;-71
2022/03/16 01:20:16;;;;;;;12.00;6.27;;;;;;;10.50;98.89;96884.16;5051532;28;20205;-71
2022/03/16 01:22:42;;;;;;;12.93;5.40;;;;;;;10.51;99.36;96880.53;5050784;28;20205;-71
2022/03/16 01:25:09;;;;;;;9.87;5.40;;;;;;;10.45;100.00;96881.19;5050973;28;20241;-71
2022/03/16 01:27:36;;;;;;;19.53;7.23;;;;;;;10.42;100.00;96886.78;5050947;28;20197;-71
2022/03/16 01:30:04;;;;;;;16.43;6.17;;;;;;;10.63;100.00;96879.28;5051597;28;20212;-71
2022/03/16 01:32:31;;;;;;;14.43;6.43;;;;;;;10.49;100.00;96875.44;5050305;28;20209;-71
2022/03/16 01:34:58;;;;;;;15.40;6.50;;;;;;;10.54;99.91;96880.25;5050410;28;20244;-71
2022/03/16 01:37:24;;;;;;;21.60;6.30;;;;;;;10.48;99.82;96879.06;5051118;28;20208;-71
2022/03/16 01:39:51;;;;;;;17.37;7.10;;;;;;;10.48;99.33;96880.88;5050519;28;20216;-71
2022/03/16 01:42:17;;;;;;;15.97;6.53;;;;;;;10.51;98.66;96880.53;5049896;28;20201;-71
2022/03/16 01:44:45;;;;;;;16.50;7.13;;;;;;;10.65;98.91;96877.28;5050203;28;20225;-71
2022/03/16 01:47:14;;;;;;;11.77;5.90;;;;;;;10.71;98.96;96871.38;5048249;28;20327;-71
2022/03/16 01:49:41;;;;;;;16.90;6.70;;;;;;;10.51;99.49;96870.00;5049920;28;20213;-71
2022/03/16 01:52:09;;;;;;;11.50;5.67;;;;;;;10.52;100.00;96871.66;5049734;28;20205;-71
2022/03/16 01:54:36;;;;;;;14.33;5.90;;;;;;;10.42;100.00;96865.72;5049357;28;20556;-71
2022/03/16 01:57:02;;;;;;;15.70;5.53;;;;;;;10.37;100.00;96873.25;5050413;28;20201;-71
2022/03/16 01:59:30;;;;;;;20.53;7.20;;;;;;;10.67;100.00;96870.06;5049848;28;20217;-71
2022/03/16 02:01:57;;;;;;;14.53;7.23;;;;;;;10.54;100.00;96869.72;5050864;28;20202;-71
2022/03/16 02:04:25;;;;;;;16.30;7.20;;;;;;;10.74;100.00;96869.22;5049611;28;20224;-71
2022/03/16 02:06:52;;;;;;;14.50;5.60;;;;;;;10.59;100.00;96870.03;5050224;28;20201;-71
2022/03/16 02:09:18;;;;;;;18.07;6.43;;;;;;;10.58;100.00;96874.47;5050363;28;20205;-71
2022/03/16 02:11:44;;;;;;;17.70;7.30;;;;;;;10.44;100.00;96874.28;5049164;28;20205;-71
2022/03/16 02:14:13;;;;;;;15.37;6.70;;;;;;;10.42;100.00;96865.72;5048932;28;20229;-71
2022/03/16 02:16:39;;;;;;;15.53;6.47;;;;;;;10.52;100.00;96872.47;5048524;28;20209;-71
2022/03/16 02:19:06;;;;;;;13.57;5.97;;;;;;;10.46;100.00;96874.94;5049727;28;20213;-71
2022/03/16 02:21:38;;;;;;;13.93;6.40;;;;;;;10.69;100.00;96875.97;5049022;28;20224;-71
2022/03/16 02:24:07;;;;;;;27.20;6.77;;;;;;;10.55;100.00;96876.59;5047423;28;20229;-71
2022/03/16 02:26:34;;;;;;;14.83;5.83;;;;;;;10.47;100.00;96884.50;5047586;28;20213;-71
2022/03/16 02:29:00;;;;;;;14.57;6.40;;;;;;;10.63;100.00;96884.56;5048097;28;20236;-71
2022/03/16 02:31:27;;;;;;;15.67;6.97;;;;;;;10.71;100.00;96879.28;5048289;28;20202;-71
2022/03/16 02:33:54;;;;;;;17.27;6.33;;;;;;;10.63;100.00;96880.09;5048332;28;20228;-71
2022/03/16 02:36:20;;;;;;;16.07;6.43;;;;;;;10.61;100.00;96876.78;5048628;28;20212;-71
2022/03/16 02:38:47;;;;;;;11.00;5.20;;;;;;;10.60;100.00;96880.44;5049104;28;20211;-71
2022/03/16 02:41:15;;;;;;;25.90;7.20;;;;;;;10.76;100.00;96882.25;5048893;28;21008;-71
2022/03/16 02:43:41;;;;;;;14.63;5.77;;;;;;;10.58;100.00;96878.94;5048053;28;20239;-71
2022/03/16 02:46:08;;;;;;;17.30;6.57;;;;;;;10.57;100.00;96885.19;5048482;28;20228;-71
2022/03/16 02:48:35;;;;;;;14.33;6.10;;;;;;;10.43;100.00;96880.53;5048034;28;20201;-71
2022/03/16 02:51:01;;;;;;;13.70;5.53;;;;;;;10.51;100.00;96878.75;5048865;28;20216;-71
2022/03/16 02:53:27;;;;;;;12.07;6.03;;;;;;;10.53;100.00;96881.22;5048735;28;20228;-71
2022/03/16 02:55:54;;;;;;;14.17;5.97;;;;;;;10.51;100.00;96876.13;5048195;28;20626;-71
2022/03/16 02:58:22;;;;;;;12.90;5.33;;;;;;;10.66;100.00;96879.75;5047788;28;20204;-71
2022/03/16 03:00:48;;;;;;;12.20;5.83;;;;;;;10.52;100.00;96880.38;5046391;28;20208;-71
2022/03/16 03:03:15;;;;;;;16.20;6.80;;;;;;;10.55;100.00;96882.72;5047318;28;20225;-71
2022/03/16 03:05:41;;;;;;;14.13;5.67;;;;;;;10.36;100.00;96884.78;5045476;28;21052;-71
2022/03/16 03:08:08;;;;;;;18.90;6.20;;;;;;;10.39;100.00;96887.94;5047249;28;20212;-71
2022/03/16 03:10:34;;;;;;;17.20;6.20;;;;;;;10.43;100.00;96893.72;5046288;28;20212;-71
2022/03/16 03:13:01;;;;;;;14.90;6.33;;;;;;;10.46;100.00;96888.94;5044760;28;20243;-71
2022/03/16 03:15:29;;;;;;;13.77;5.80;;;;;;;10.63;100.00;96893.28;5043838;28;20234;-71
2022/03/16 03:17:56;;;;;;;12.10;6.20;;;;;;;10.42;100.00;96898.16;5046289;28;20208;-71
2022/03/16 03:20:22;;;;;;;21.93;6.40;;;;;;;10.38;100.00;96894.19;5046494;28;20205;-71
2022/03/16 03:22:49;;;;;;;11.93;6.03;;;;;;;10.43;100.00;96896.34;5046482;28;20208;-71
2022/03/16 03:25:16;;;;;;;15.80;6.13;;;;;;;10.50;100.00;96894.69;5044238;28;20224;-71
2022/03/16 03:27:43;;;;;;;13.40;5.93;;;;;;;10.50;100.00;96902.59;5046665;28;20560;-71
2022/03/16 03:30:11;;;;;;;17.07;6.37;;;;;;;10.61;100.00;96902.31;5046637;28;20209;-70
2022/03/16 03:32:39;;;;;;;11.70;5.30;;;;;;;10.66;100.00;96902.66;5045401;28;20205;-71
2022/03/16 03:35:07;;;;;;;18.10;7.30;;;;;;;10.64;100.00;96908.09;5045931;28;20221;-71
2022/03/16 03:37:33;;;;;;;17.73;6.70;;;;;;;10.57;100.00;96911.53;5046970;28;20241;-71
2022/03/16 03:40:00;;;;;;;17.67;6.80;;;;;;;10.54;100.00;96906.59;5046027;28;20212;-71
2022/03/16 03:42:27;;;;;;;14.03;6.63;;;;;;;10.49;100.00;96908.88;5042737;28;20209;-71
2022/03/16 03:44:53;;;;;;;17.90;5.47;;;;;;;10.45;100.00;96908.38;5046613;28;20232;-71
2022/03/16 03:47:19;;;;;;;18.83;6.77;;;;;;;10.43;100.00;96907.69;5046591;28;20208;-71
2022/03/16 03:49:47;;;;;;;21.33;5.27;;;;;;;10.58;100.00;96907.94;5046115;28;20228;-71
2022/03/16 03:52:14;;;;;;;17.83;7.07;;;;;;;10.33;100.00;96909.66;5046147;28;20209;-71
2022/03/16 03:54:41;;;;;;;18.50;6.50;;;;;;;10.31;100.00;96905.53;5044940;28;20213;-71
2022/03/16 03:57:08;;;;;;;13.27;5.27;;;;;;;10.05;100.00;96910.00;5044095;28;20302;-71
2022/03/16 03:59:35;;;;;;;15.03;6.07;;;;;;;10.10;100.00;96910.38;5044471;28;20207;-71
2022/03/16 04:02:01;;;;;;;18.07;7.40;;;;;;;10.16;100.00;96912.38;5044917;28;20209;-71
2022/03/16 04:04:28;;;;;;;14.73;6.00;;;;;;;10.14;100.00;96919.59;5044481;28;20240;-71
2022/03/16 04:06:55;;;;;;;15.07;6.53;;;;;;;10.27;100.00;96917.34;5044634;28;20209;-71
2022/03/16 04:09:22;;;;;;;22.70;7.67;;;;;;;10.02;100.00;96915.59;5044096;28;20216;-71
2022/03/16 04:11:48;;;;;;;24.37;7.93;;;;;;;10.19;100.00;96927.03;5044359;28;20211;-71
2022/03/16 04:14:16;;;;;;;20.27;7.03;;;;;;;10.00;100.00;96925.44;5043398;28;20228;-71
2022/03/16 04:16:42;;;;;;;16.67;6.43;;;;;;;10.02;100.00;96926.13;5043108;28;20197;-71
2022/03/16 04:19:08;;;;;;;18.73;7.67;;;;;;;9.80;100.00;96934.53;5043044;28;20205;-71
2022/03/16 04:21:35;;;;;;;17.70;6.70;;;;;;;9.88;100.00;96924.03;5043619;28;20208;-71
2022/03/16 04:24:03;;;;;;;29.90;7.47;;;;;;;9.95;100.00;96927.72;5042475;28;20823;-71
2022/03/16 04:26:30;;;;;;;25.77;7.27;;;;;;;9.84;100.00;96924.53;5043242;28;20233;-71
2022/03/16 04:28:57;;;;;;;12.50;5.40;;;;;;;9.90;100.00;96932.63;5044315;28;20216;-71
2022/03/16 04:31:23;;;;;;;16.13;6.40;;;;;;;9.80;100.00;96942.44;5043940;28;20201;-71
2022/03/16 04:33:50;;;;;;;17.47;7.00;;;;;;;9.65;100.00;96942.31;5042261;28;20232;-71
2022/03/16 04:36:16;;;;;;;16.73;7.30;;;;;;;9.56;100.00;96953.75;5044491;28;20661;-71
2022/03/16 04:38:43;;;;;;;17.93;6.87;;;;;;;9.25;100.00;96952.53;5042996;28;20205;-70
2022/03/16 04:41:11;;;;;;;21.97;7.17;;;;;;;9.32;100.00;96946.53;5042941;28;20212;-71
2022/03/16 04:43:37;;;;;;;21.70;8.63;;;;;;;8.89;100.00;96958.78;5043404;28;20237;-70
2022/03/16 04:46:04;;;;;;;23.43;7.73;;;;;;;9.09;100.00;96955.03;5046518;28;20249;-70
2022/03/16 04:48:30;;;;;;;23.67;7.83;;;;;;;8.85;100.00;96962.69;5045865;28;20212;-70
2022/03/16 04:50:57;;;;;;;21.23;8.50;;;;;;;8.81;100.00;96956.06;5046718;28;20232;-70
2022/03/16 04:53:23;;;;;;;29.57;7.77;;;;;;;8.94;100.00;96950.47;5046876;28;20225;-71
2022/03/16 04:55:50;;;;;;;25.03;8.93;;;;;;;8.88;100.00;96961.56;5046189;28;20204;-71
2022/03/16 04:58:18;;;;;;;28.23;9.60;;;;;;;8.97;100.00;96960.66;5046752;28;20209;-71
2022/03/16 05:00:44;;;;;;;29.67;9.27;;;;;;;8.89;100.00;96965.84;5048040;28;20201;-71
2022/03/16 05:03:11;;;;;;;33.17;7.70;;;;;;;8.66;100.00;96962.81;5047292;28;20221;-71
2022/03/16 05:05:37;;;;;;;24.30;8.50;;;;;;;8.58;100.00;96975.84;5047707;28;20592;-70
2022/03/16 05:08:04;;;;;;;21.40;8.77;;;;;;;8.53;100.00;96969.41;5046963;28;20240;-71
2022/03/16 05:10:30;;;;;;;24.50;8.10;;;;;;;8.48;100.00;96977.69;5048425;28;20200;-71
2022/03/16 05:12:57;;;;;;;26.17;9.50;;;;;;;8.18;100.00;96977.16;5045028;28;20284;-71
2022/03/16 05:15:24;;;;;;;23.60;10.20;;;;;;;8.27;100.00;96978.09;5045074;28;20209;-71
2022/03/16 05:17:51;;;;;;;24.27;9.23;;;;;;;8.25;100.00;96982.66;5046322;28;21036;-70
2022/03/16 05:20:18;;;;;;;26.40;8.00;;;;;;;8.17;100.00;96980.78;5046144;28;20213;-71
2022/03/16 05:22:46;;;;;;;21.50;8.27;;;;;;;8.34;100.00;96976.53;5044903;28;20201;-71
2022/03/16 05:25:15;;;;;;;21.40;8.63;;;;;;;8.49;100.00;96989.88;5045504;28;20594;-70
2022/03/16 05:27:42;;;;;;;27.10;9.93;;;;;;;8.25;100.00;96993.16;5044425;28;20204;-71
2022/03/16 05:30:10;;;;;;;27.47;11.07;;;;;;;8.21;100.00;96986.53;5045795;28;20209;-70
2022/03/16 05:32:41;;;;;;;18.80;7.33;;;;;;;8.20;100.00;96995.41;5045228;28;20210;-70
2022/03/16 05:35:08;;;;;;;19.10;7.83;;;;;;;8.22;100.00;96996.06;5046136;28;20221;-70
2022/03/16 05:37:35;;;;;;;23.60;8.83;;;;;;;8.22;100.00;96991.66;5047674;28;20212;-70
2022/03/16 05:40:01;;;;;;;21.37;8.07;;;;;;;7.93;100.00;96993.53;5048298;28;20209;-71
2022/03/16 05:42:28;;;;;;;21.83;8.83;;;;;;;8.04;100.00;97000.38;5048520;28;20205;-70
2022/03/16 05:44:54;;;;;;;19.77;7.80;;;;;;;7.98;100.00;97000.94;5046776;28;20241;-70
2022/03/16 05:47:22;;;;;;;25.63;8.67;;;;;;;8.01;100.00;97005.94;5048292;28;20209;-70
2022/03/16 05:49:51;;;;;;;15.60;7.93;;;;;;;8.22;100.00;97001.31;5047276;28;20213;-70
2022/03/16 05:52:21;;;;;;;26.97;7.97;;;;;;;8.07;100.00;97015.84;5047099;28;20213;-70
2022/03/16 05:54:47;;;;;;;23.93;7.47;;;;;;;8.20;100.00;97011.16;5044066;28;20274;-70
2022/03/16 05:57:15;;;;;;;32.43;9.70;;;;;;;8.00;100.00;97020.03;5040428;28;20201;-71
2022/03/16 05:59:41;;;;;;;23.23;8.87;;;;;;;7.91;100.00;97016.44;5038297;28;20219;-72
2022/03/16 06:02:08;;;;;;;19.83;8.40;;;;;;;7.88;100.00;97015.91;5038381;28;20216;-71
2022/03/16 06:04:35;;;;;;;27.43;8.77;;;;;;;8.16;100.00;97025.50;5038281;28;20232;-71
2022/03/16 06:07:04;;;;;;;31.67;8.57;;;;;;;8.07;100.00;97026.34;5037724;28;20236;-71
2022/03/16 06:09:30;;;;;;;22.00;8.03;;;;;;;7.80;100.00;97026.25;5038565;28;20257;-73
2022/03/16 06:11:57;;;;;;;28.70;10.53;;;;;;;7.96;100.00;97031.78;5038064;28;20203;-72
2022/03/16 06:14:23;;;;;;;18.00;7.50;;;;;;;7.89;100.00;97033.28;5037904;28;20225;-71
2022/03/16 06:16:52;;;;;;;18.13;8.47;;;;;;;7.69;100.00;97034.31;5037357;28;20201;-70
2022/03/16 06:19:19;;;;;;;22.43;8.37;;;;;;;7.81;100.00;97033.19;5043580;28;20308;-73
2022/03/16 06:21:45;;;;;;;18.80;6.90;;;;;;;7.70;100.00;97041.22;5042881;28;20212;-72
2022/03/16 06:24:13;;;;;;;24.10;8.07;;;;;;;7.88;100.00;97037.72;5042263;28;20244;-72
2022/03/16 06:26:40;;;;;;;21.93;6.17;;;;;;;7.80;100.00;97039.38;5043163;28;20229;-70
2022/03/16 06:29:07;;;;;;;20.33;8.23;;;;;;;7.74;100.00;97052.25;5042245;28;20689;-70
2022/03/16 06:31:34;;;;;;;21.70;7.30;;;;;;;7.58;100.00;97042.31;5042450;28;20678;-70
2022/03/16 06:34:01;;;;;;;25.23;9.63;;;;;;;7.83;100.00;97044.38;5042349;28;20225;-70
2022/03/16 06:36:28;;;;;;;18.63;6.60;;;;;;;8.04;100.00;97050.25;5043100;28;20217;-71
2022/03/16 06:38:55;;;;;;;15.20;7.30;;;;;;;7.75;100.00;97046.88;5042035;28;20212;-70
2022/03/16 06:41:23;;;;;;;26.03;8.17;;;;;;;7.98;100.00;97043.78;5042764;28;20205;-72
2022/03/16 06:43:50;;;;;;;27.37;7.50;;;;;;;8.00;100.00;97056.75;5041750;28;20236;-70
2022/03/16 06:46:16;;;;;;;19.27;6.73;;;;;;;7.86;100.00;97066.88;5041380;28;20255;-70
2022/03/16 06:48:43;;;;;;;21.13;6.83;;;;;;;7.90;99.99;97061.19;5042252;28;20213;-70
2022/03/16 06:51:09;;;;;;;12.00;6.60;;;;;;;7.98;100.00;97056.91;5041985;28;20209;-71
2022/03/16 06:53:37;;;;;;;27.93;8.50;;;;;;;8.05;100.00;97060.59;5040730;28;20229;-71
2022/03/16 06:56:04;;;;;;;19.47;6.80;;;;;;;8.04;99.16;97066.00;5041520;28;20209;-71
2022/03/16 06:58:32;;;;;;;20.87;7.53;;;;;;;7.95;99.44;97072.09;5041123;28;20209;-71
2022/03/16 07:00:58;;;;;;;16.27;8.87;;;;;;;8.02;98.59;97070.59;5041415;28;20213;-71
2022/03/16 07:03:25;;;;;;;19.03;8.63;;;;;;;7.80;99.44;97084.00;5041162;28;20226;-70
2022/03/16 07:05:51;;;;;;;14.90;6.73;;;;;;;7.94;98.37;97073.91;5040627;28;20225;-71
2022/03/16 07:08:18;;;;;;;19.33;6.47;;;;;;;8.06;98.80;97082.44;5039681;28;20209;-70
2022/03/16 07:10:45;;;;;;;23.50;7.43;;;;;;;8.11;98.00;97078.44;5039980;28;20209;-70
2022/03/16 07:13:12;;;;;;;21.40;6.80;;;;;;;7.96;97.99;97079.00;5040273;28;20236;-73
2022/03/16 07:15:42;;;;;;;16.63;6.57;;;;;;;8.15;98.86;97082.44;5037135;28;20204;-71
2022/03/16 07:18:09;;;;;;;20.33;7.17;;;;;;;7.77;98.89;97081.66;5041002;28;20201;-71
2022/03/16 07:20:36;;;;;;;20.33;8.00;;;;;;;7.91;98.41;97083.84;5039351;28;20209;-71
2022/03/16 07:23:06;;;;;;;17.53;7.30;;;;;;;8.18;98.32;97091.84;5038417;28;20229;-71
2022/03/16 07:25:32;;;;;;;15.90;6.47;;;;;;;8.11;96.98;97085.47;5037172;28;20699;-71
2022/03/16 07:27:59;;;;;;;14.90;6.20;;;;;;;8.01;97.27;97090.72;5037410;28;20552;-71
2022/03/16 07:30:26;;;;;;;16.37;6.87;;;;;;;8.17;97.74;97088.41;5039225;28;20205;-70
2022/03/16 07:32:54;;;;;;;11.53;4.77;;;;;;;8.31;97.15;97081.84;5039658;28;20208;-71
2022/03/16 07:35:26;;;;;;;19.80;6.90;;;;;;;8.23;97.11;97097.50;5038754;28;20240;-71
2022/03/16 07:37:53;;;;;;;19.73;7.43;;;;;;;8.12;97.98;97102.88;5039108;28;20258;-71
2022/03/16 07:40:20;;;;;;;17.27;6.93;;;;;;;8.11;97.34;97098.59;5038497;28;20205;-71
2022/03/16 07:42:47;;;;;;;13.43;5.83;;;;;;;7.88;98.27;97105.13;5039093;28;20205;-70
2022/03/16 07:45:15;;;;;;;15.10;6.30;;;;;;;8.09;97.82;97103.97;5041452;28;20681;-70
2022/03/16 07:47:42;;;;;;;15.40;6.37;;;;;;;8.06;97.34;97111.31;5042295;28;20225;-71
2022/03/16 07:50:11;;;;;;;17.23;7.27;;;;;;;8.12;98.11;97113.38;5042053;28;20212;-71
2022/03/16 07:52:38;;;;;;;20.87;6.43;;;;;;;8.05;97.20;97113.09;5040601;28;20230;-71
2022/03/16 07:55:06;;;;;;;14.87;6.63;;;;;;;8.10;97.20;97110.06;5041750;28;20225;-71
2022/03/16 07:57:33;;;;;;;15.47;7.03;;;;;;;8.01;96.81;97118.78;5042466;28;20211;-71
2022/03/16 07:59:59;;;;;;;18.83;7.50;;;;;;;7.91;96.91;97120.59;5041967;28;21016;-70
2022/03/16 08:02:27;;;;;;;18.33;7.40;;;;;;;8.22;97.40;97116.84;5040403;28;20201;-71
2022/03/16 08:04:57;;;;;;;14.23;4.93;;;;;;;8.01;97.01;97124.84;5040755;28;20713;-71
2022/03/16 08:07:25;;;;;;;20.20;6.63;;;;;;;8.26;96.48;97115.59;5040997;28;20279;-71
2022/03/16 08:09:52;;;;;;;13.53;5.70;;;;;;;8.22;96.16;97120.31;5042121;28;20212;-70
2022/03/16 08:12:18;;;;;;;18.87;7.13;;;;;;;8.19;95.58;97125.00;5040380;28;20688;-71
2022/03/16 08:14:45;;;;;;;20.07;5.00;;;;;;;8.18;96.79;97123.34;5038746;28;20774;-70
2022/03/16 08:17:12;;;;;;;11.57;5.60;;;;;;;8.03;96.12;97129.97;5040520;28;20339;-71
2022/03/16 08:19:38;;;;;;;16.37;6.87;;;;;;;8.24;95.25;97128.03;5044953;28;20213;-70
2022/03/16 08:22:05;;;;;;;19.40;7.57;;;;;;;8.07;97.12;97131.31;5045097;28;20203;-71
2022/03/16 08:24:33;;;;;;;18.03;6.60;;;;;;;8.04;97.27;97126.38;5045114;28;20224;-71
2022/03/16 08:26:59;;;;;;;23.57;7.00;;;;;;;7.91;97.43;97136.34;5044527;28;20224;-70
2022/03/16 08:29:26;;;;;;;24.10;8.70;;;;;;;8.06;96.60;97127.06;5043246;28;20205;-71
2022/03/16 08:31:53;;;;;;;17.53;7.53;;;;;;;8.07;96.88;97132.19;5042734;28;20209;-71
2022/03/16 08:34:20;;;;;;;16.10;7.30;;;;;;;8.20;96.20;97129.28;5042834;28;20367;-71
2022/03/16 08:36:46;;;;;;;15.70;6.57;;;;;;;8.24;96.22;97130.66;5043767;28;20817;-70
2022/03/16 08:39:13;;;;;;;17.67;6.57;;;;;;;8.28;95.90;97132.84;5043173;28;21123;-71
2022/03/16 08:41:41;;;;;;;12.90;6.13;;;;;;;8.39;96.56;97126.59;5042999;28;20216;-71
2022/03/16 08:44:08;;;;;;;16.80;6.83;;;;;;;8.11;97.25;97127.47;5042162;28;20344;-71
2022/03/16 08:46:34;;;;;;;19.73;8.07;;;;;;;8.31;96.51;97129.13;5042886;28;20236;-71
2022/03/16 08:49:01;;;;;;;16.87;7.13;;;;;;;8.16;96.22;97135.78;5042298;28;20202;-71
2022/03/16 08:51:27;;;;;;;21.43;6.30;;;;;;;8.18;96.26;97131.22;5043769;28;20201;-71
2022/03/16 08:53:54;;;;;;;14.83;6.20;;;;;;;8.45;95.96;97126.84;5042351;28;20225;-71
2022/03/16 08:56:22;;;;;;;17.13;8.03;;;;;;;8.35;96.76;97125.22;5044271;28;20205;-71
2022/03/16 08:58:50;;;;;;;21.03;6.97;;;;;;;8.53;96.02;97125.19;5043431;28;20227;-71
2022/03/16 09:01:16;;;;;;;19.43;7.07;;;;;;;8.51;96.01;97116.63;5044095;28;20212;-71
2022/03/16 09:03:42;;;;;;;22.67;6.87;;;;;;;8.61;96.25;97117.41;5042854;28;20220;-71
2022/03/16 09:06:09;;;;;;;17.10;7.37;;;;;;;8.56;96.27;97119.63;5043830;28;20982;-71
2022/03/16 09:08:36;;;;;;;18.80;7.13;;;;;;;8.53;95.90;97114.69;5044428;28;20204;-71
2022/03/16 09:11:02;;;;;;;26.07;8.73;;;;;;;8.81;95.55;97115.56;5043839;28;20212;-71
2022/03/16 09:13:29;;;;;;;23.63;9.33;;;;;;;8.53;95.84;97109.44;5042892;28;20241;-71
2022/03/16 09:15:59;;;;;;;14.77;6.53;;;;;;;8.83;96.83;97101.28;5041957;28;20220;-71
2022/03/16 09:18:26;;;;;;;19.37;7.73;;;;;;;8.82;96.00;97098.78;5042652;28;20201;-70
2022/03/16 09:20:53;;;;;;;24.13;8.57;;;;;;;9.04;95.21;97099.25;5042197;28;20244;-71
2022/03/16 09:23:19;;;;;;;21.10;6.83;;;;;;;9.31;94.17;97096.59;5041835;28;20229;-70
2022/03/16 09:25:46;;;;;;;24.73;8.13;;;;;;;9.26;94.99;97089.13;5042641;28;20278;-71
2022/03/16 09:28:13;;;;;;;18.50;8.07;;;;;;;9.61;94.07;97090.97;5042740;28;20229;-71
2022/03/16 09:30:40;;;;;;;21.53;8.23;;;;;;;9.43;93.73;97093.59;5041418;28;20202;-71
2022/03/16 09:33:09;;;;;;;23.17;7.57;;;;;;;9.77;93.46;97095.38;5041858;28;21102;-71
2022/03/16 09:35:35;;;;;;;22.23;7.33;;;;;;;9.88;91.55;97103.06;5041141;28;20205;-71
2022/03/16 09:38:02;;;;;;;18.97;6.53;;;;;;;9.77;90.84;97099.81;5042590;28;20205;-71
2022/03/16 09:40:30;;;;;;;20.43;8.50;;;;;;;9.88;91.38;97097.78;5042078;28;20201;-70
2022/03/16 09:42:58;;;;;;;18.33;6.93;;;;;;;9.66;91.09;97092.19;5040934;28;20205;-70
2022/03/16 09:45:30;;;;;;;28.83;8.90;;;;;;;10.01;91.25;97093.00;5041301;28;20605;-70
2022/03/16 09:47:56;;;;;;;20.00;7.57;;;;;;;9.67;90.46;97088.53;5040926;28;21112;-71
2022/03/16 09:50:24;;;;;;;17.73;8.30;;;;;;;9.99;90.33;97100.22;5041331;28;20212;-71
2022/03/16 09:52:51;;;;;;;22.60;7.07;;;;;;;9.73;90.37;97094.03;5040424;28;20212;-71
2022/03/16 09:55:20;;;;;;;16.53;6.50;;;;;;;9.80;90.44;97110.88;5041411;28;21134;-71
2022/03/16 09:57:46;;;;;;;26.70;8.70;;;;;;;9.80;90.47;97110.03;5040449;28;20275;-71
2022/03/16 10:00:14;;;;;;;15.60;6.30;;;;;;;9.83;90.68;97104.50;5041059;28;20224;-71
2022/03/16 10:02:41;;;;;;;21.73;7.40;;;;;;;10.01;90.60;97100.88;5039847;28;20205;-71
2022/03/16 10:05:09;;;;;;;17.80;7.17;;;;;;;10.06;89.44;97100.44;5041000;28;20232;-71
2022/03/16 10:07:37;;;;;;;21.20;8.60;;;;;;;9.91;91.63;97096.66;5040016;28;20228;-71
2022/03/16 10:15:34;;;;;;;23.60;8.00;;;;;;;10.28;88.25;97079.69;5037994;28;20215;-71
2022/03/16 10:18:03;;;;;;;22.20;8.60;;;;;;;10.74;87.52;97068.75;5040373;28;20211;-71
2022/03/16 10:20:32;;;;;;;14.83;6.83;;;;;;;10.67;87.82;97075.66;5039366;28;20773;-71
2022/03/16 10:23:05;;;;;;;21.53;7.63;;;;;;;11.07;88.45;97076.63;5035626;28;20204;-70
2022/03/16 10:25:34;;;;;;;21.90;7.80;;;;;;;11.01;87.36;97077.28;5038972;28;20215;-71
2022/03/16 10:28:10;;;;;;;20.93;8.23;;;;;;;11.09;86.40;97072.03;5038391;28;20229;-71
2022/03/16 10:30:38;;;;;;;19.70;8.40;;;;;;;10.94;87.92;97063.88;5039169;28;20346;-71
2022/03/16 10:33:05;;;;;;;19.83;7.20;;;;;;;11.18;85.47;97063.97;5038040;28;20283;-71
2022/03/16 10:35:33;;;;;;;20.97;8.67;;;;;;;11.39;84.82;97063.53;5039186;28;20209;-70
2022/03/16 10:38:13;;;;;;;26.67;8.83;;;;;;;11.44;83.68;97062.03;5038810;28;20979;-71
2022/03/16 10:40:40;;;;;;;23.77;9.13;;;;;;;11.24;85.17;97059.84;5039392;28;20220;-71
2022/03/16 10:49:01;;;;;;;21.77;8.23;;;;;;;11.55;85.10;97064.41;5037241;28;20235;-71
2022/03/16 10:51:28;;;;;;;22.50;7.63;;;;;;;11.18;85.34;97068.44;5038596;28;20209;-70
2022/03/16 10:53:57;;;;;;;20.23;6.33;;;;;;;11.44;84.98;97062.03;5037047;28;20221;-71
2022/03/16 10:56:25;;;;;;;23.67;8.47;;;;;;;11.57;86.17;97062.47;5037264;28;20212;-71
2022/03/16 10:58:53;;;;;;;28.70;8.20;;;;;;;11.54;86.51;97052.19;5037169;28;20231;-71
2022/03/16 11:01:20;;;;;;;20.10;7.90;;;;;;;11.28;86.80;97050.66;5037385;28;20212;-71
2022/03/16 11:03:49;;;;;;;19.83;7.37;;;;;;;11.70;86.56;97047.78;5035948;28;20690;-71
2022/03/16 11:06:18;;;;;;;21.77;8.60;;;;;;;11.81;86.46;97044.81;5037660;28;20251;-71
2022/03/16 11:08:45;;;;;;;27.17;8.77;;;;;;;11.79;85.88;97052.06;5036866;28;20236;-71
2022/03/16 11:13:58;;;;;;;25.20;8.27;;;;;;;11.62;85.39;97050.41;5036268;28;20247;-71
2022/03/16 11:16:25;;;;;;;25.43;8.10;;;;;;;11.81;86.00;97046.63;5033903;28;20216;-71
2022/03/16 11:18:52;;;;;;;19.40;7.37;;;;;;;11.87;86.44;97043.31;5036550;28;20549;-71
2022/03/16 11:21:26;;;;;;;23.53;8.33;;;;;;;12.07;85.68;97042.00;5036273;28;21144;-71
2022/03/16 11:26:57;;;;;;;21.33;9.30;;;;;;;12.09;84.25;97035.53;5036329;28;20216;-71
2022/03/16 11:29:39;;;;;;;18.07;8.30;;;;;;;11.74;86.24;97043.00;5036940;28;20562;-71
2022/03/16 11:32:09;;;;;;;20.50;6.93;;;;;;;11.77;86.59;97037.38;5037080;28;21300;-71
2022/03/16 11:34:36;;;;;;;23.77;8.70;;;;;;;11.96;84.93;97039.69;5036548;28;20229;-71
2022/03/16 11:37:05;;;;;;;18.73;7.33;;;;;;;11.93;84.87;97040.84;5036731;28;20204;-71
2022/03/16 11:39:41;;;;;;;25.93;8.00;;;;;;;12.11;84.35;97046.78;5036511;28;20669;-71
2022/03/16 11:42:11;;;;;;;17.93;7.37;;;;;;;12.08;84.47;97038.34;5037073;28;20247;-71
2022/03/16 11:44:39;;;;;;;22.27;9.33;;;;;;;11.99;83.84;97036.69;5036994;28;20239;-70